LFML

Marseille Provence Airport

Marseille, France
TAF LFML 212000Z 2121/2303 32010KT CAVOK TX08/2214Z TN01/2205Z BECMG 2218/2220 VRB03KT
Issued Valid From Valid To
Jan-21 @ 20:00 UTC
(4 hours ago)
Jan-21 @ 21:00 UTC
(3 hours ago)
Jan-23 @ 03:00 UTC
(-1 days ago)
Jan-21 @ 21:00 to Jan-22 @ 18:00
TAF LFML 212000Z 2121/2303 32010KT CAVOK TX08/2214Z TN01/2205Z
Wind Visibility Clouds
320° at 10 knots 10,000+ meters
  • No significant clouds
Becoming Jan-22 @ 18:00 to Jan-23 @ 03:00
BECMG 2218/2220 VRB03KT
Wind Visibility Clouds
Variable at 3 knots 10,000+ meters
  • No significant clouds
TAF LFML 212000Z 2121/2303 32010KT CAVOK TX08/2214Z TN01/2205Z BECMG 2218/2220 VRB03KT
Issued Jan-21 @ 20:00 UTC
(4 hours ago)
Valid From Jan-21 @ 21:00 UTC
(3 hours ago)
Valid To Jan-23 @ 03:00 UTC
(-1 days ago)
Jan-21 @ 21:00 - Jan-22 @ 18:00
Wind Visibility
320° at 10 knots 10,000+ meters
Clouds
  • No significant clouds
Becoming Jan-22 @ 18:00 - Jan-23 @ 03:00
Wind Visibility
Variable at 3 knots 10,000+ meters
Clouds
  • No significant clouds